Latest Coastal Weather Observations for Middle Percy Island

IDQ60701

Issued at 1:33 am EST Sunday 28 May 2017 (issued every 10 minutes, with the page automatically refreshed every 10 minutes)

About coastal observations | Map of coastal stations | Coastal observations for QLD | Marine services | Other Formats
Station Details ID: 200001 Name: MIDDLE PERCY ISLAND Lat: -21.66 Lon: 150.27 Height: 208.7 m
Data from the previous 72 hours. | See also: Recent months at Middle Percy Island
Date/Time
EST
Temp
°C
Wind Pressure Rain since
9am
mm
Weather Cloud Vis
km
Sea
Height
m
Swell
Dir  Spd
kts
Gust
kts
hPa Trend Height
m
Period
s
Dir
28/01:30am 20.6 ESE 5 8 1018.3 - 0.0 - - - - - - -
28/01:00am 20.6 E 5 10 1018.6 - 0.0 - - - - - - -
28/12:30am 20.6 E 6 8 1018.7 - 0.0 - - - - - - -
28/12:00am 20.7 E 5 10 1018.8 - 0.0 - - - - - - -
 
Date/Time
EST
Temp
°C
Wind Pressure Rain since
9am
mm
Weather Cloud Vis
km
Sea
Height
m
Swell
Dir  Spd
kts
Gust
kts
hPa Trend Height
m
Period
s
Dir
27/11:30pm 20.6 ESE 6 9 1018.9 - 0.0 - - - - - - -
27/11:00pm 20.5 ESE 6 11 1019.0 - 0.0 - - - - - - -
27/10:30pm 20.5 ESE 7 10 1019.0 - 0.0 - - - - - - -
27/10:00pm 20.7 E 6 10 1019.1 - 0.0 - - - - - - -
27/09:30pm 20.8 E 7 10 1019.1 - 0.0 - - - - - - -
27/09:00pm 20.7 ESE 6 9 1019.0 - 0.0 - - - - - - -
27/08:30pm 20.6 ESE 5 10 1019.1 - 0.0 - - - - - - -
27/08:00pm 20.8 ESE 7 12 1018.8 - 0.0 - - - - - - -
27/07:30pm 20.9 ESE 9 14 1018.5 - 0.0 - - - - - - -
27/07:00pm 20.7 ESE 8 13 1018.3 - 0.0 - - - - - - -
27/06:30pm 20.7 ESE 8 12 1018.1 - 0.0 - - - - - - -
27/06:00pm 20.5 ESE 7 11 1017.8 - 0.0 - - - - - - -
27/05:30pm 20.8 ESE 9 13 1017.5 - 0.0 - - - - - - -
27/05:00pm 20.9 ESE 9 13 1017.3 - 0.0 - - - - - - -
27/04:30pm 21.5 ESE 9 13 1017.1 - 0.0 - - - - - - -
27/04:00pm 21.7 SE 11 15 1016.9 - 0.0 - - - - - - -
27/03:30pm 22.2 ESE 11 15 1016.9 - 0.0 - - - - - - -
27/03:00pm 22.4 ESE 10 16 1016.9 - 0.0 - - - - - - -
27/02:30pm 22.9 ESE 11 15 1017.1 - 0.0 - - - - - - -
27/02:00pm 23.0 ESE 11 15 1017.1 - 0.0 - - - - - - -
27/01:30pm 21.7 SE 10 14 1017.2 - 0.0 - - - - - - -
27/01:00pm 23.2 ESE 9 13 1017.6 - 0.0 - - - - - - -
27/12:30pm 23.3 SE 9 13 1018.1 - 0.0 - - - - - - -
27/12:00pm 23.0 ESE 10 15 1018.5 - 0.0 - - - - - - -
27/11:30am 23.0 ESE 10 13 1018.8 - 0.0 - - - - - - -
27/11:00am 23.0 SE 10 13 1019.2 - 0.0 - - - - - - -
27/10:30am 22.8 SE 10 13 1019.4 - 0.0 - - - - - - -
27/10:00am 22.8 ESE 9 13 1019.6 - 0.0 - - - - - - -
27/09:30am 22.3 ESE 8 11 1019.5 - 0.0 - - - - - - -
27/09:00am 22.1 ESE 9 13 1019.4 - 4.0 - - - - - - -
27/08:30am 21.6 ESE 6 10 1019.3 - 4.0 - - - - - - -
27/08:00am 21.5 ESE 5 8 1019.2 - 4.0 - - - - - - -
27/07:30am 21.3 ESE 6 10 1018.9 - 4.0 - - - - - - -
27/07:00am 20.6 ESE 8 11 1018.6 - 4.0 - - - - - - -
27/06:30am 19.9 ESE 6 11 1018.3 - 4.0 - - - - - - -
27/06:00am 19.8 ESE 7 11 1018.1 - 4.0 - - - - - - -
27/05:30am 20.1 ESE 10 14 1017.8 - 4.0 - - - - - - -
27/05:00am 20.0 SE 10 14 1017.7 - 4.0 - - - - - - -
27/04:30am 19.7 SE 11 15 1017.7 - 4.0 - - - - - - -
27/04:00am 19.7 SE 11 16 1017.7 - 4.0 - - - - - - -
27/03:30am 19.8 SSE 11 15 1017.7 - 4.0 - - - - - - -
27/03:00am 19.6 SE 11 15 1017.7 - 4.0 - - - - - - -
27/02:30am 19.6 SE 10 14 1017.8 - 4.0 - - - - - - -
27/02:00am 19.8 S 6 11 1018.1 - 4.0 - - - - - - -
27/01:30am 19.4 S 5 7 1018.4 - 4.0 - - - - - - -
27/01:00am 19.0 S 8 12 1018.4 - 4.0 - - - - - - -
27/12:30am 18.9 S 10 13 1018.3 - 3.4 - - - - - - -
27/12:00am 19.8 SSE 11 14 1018.5 - 0.6 - - - - - - -
 
Date/Time
EST
Temp
°C
Wind Pressure Rain since
9am
mm
Weather Cloud Vis
km
Sea
Height
m
Swell
Dir  Spd
kts
Gust
kts
hPa Trend Height
m
Period
s
Dir
26/11:30pm 19.4 S 6 8 1018.6 - 0.6 - - - - - - -
26/11:00pm 19.8 SSE 10 13 1018.7 - 0.6 - - - - - - -
26/10:30pm 20.0 S 8 11 1019.0 - 0.6 - - - - - - -
26/10:00pm 19.7 SSE 5 6 1019.1 - 0.6 - - - - - - -
26/09:30pm 20.2 S 6 11 1019.0 - 0.6 - - - - - - -
26/09:00pm 19.7 SSE 5 6 1019.1 - 0.6 - - - - - - -
26/08:30pm 19.6 SE 5 7 1019.0 - 0.6 - - - - - - -
26/08:00pm 19.4 ESE 6 9 1018.8 - 0.6 - - - - - - -
26/07:30pm 20.1 SE 9 13 1018.4 - 0.0 - - - - - - -
26/07:00pm 20.6 SSE 8 10 1018.0 - 0.0 - - - - - - -
26/06:30pm 20.6 SSE 7 10 1017.7 - 0.0 - - - - - - -
26/06:00pm 20.8 SSE 6 9 1017.5 - 0.0 - - - - - - -
26/05:30pm 20.3 SSE 5 7 1017.3 - 0.0 - - - - - - -
26/05:00pm 20.7 SSE 5 7 1017.1 - 0.0 - - - - - - -
26/04:30pm 21.4 SSE 6 7 1017.0 - 0.0 - - - - - - -
26/04:00pm 21.9 SSE 7 10 1016.9 - 0.0 - - - - - - -
26/03:30pm 22.2 SE 8 11 1016.8 - 0.0 - - - - - - -
26/03:00pm 22.6 SSE 9 13 1016.7 - 0.0 - - - - - - -
26/02:30pm 22.9 SE 9 12 1016.9 - 0.0 - - - - - - -
26/02:00pm 23.2 SE 10 13 1016.9 - 0.0 - - - - - - -
26/01:30pm 23.3 SE 9 13 1017.1 - 0.0 - - - - - - -
26/01:00pm 23.2 SE 11 15 1017.5 - 0.0 - - - - - - -
26/12:30pm 23.2 SE 10 14 1017.9 - 0.0 - - - - - - -
26/12:00pm 23.7 SE 10 13 1018.4 - 0.0 - - - - - - -
26/11:30am 23.7 ESE 9 13 1018.9 - 0.0 - - - - - - -
26/11:00am 23.4 SE 9 13 1019.1 - 0.0 - - - - - - -
26/10:30am 23.3 SE 9 14 1019.3 - 0.0 - - - - - - -
26/10:00am 22.8 SE 11 15 1019.5 - 0.0 - - - - - - -
26/09:30am 22.3 SE 10 16 1019.4 - 0.0 - - - - - - -
26/09:00am 22.5 SE 10 16 1019.4 - 0.0 - - - - - - -
26/08:30am 22.1 SE 10 15 1019.1 - 0.0 - - - - - - -
26/08:00am 21.7 SE 11 15 1019.0 - 0.0 - - - - - - -
26/07:30am 21.3 SE 10 15 1018.7 - 0.0 - - - - - - -
26/07:00am 20.8 ESE 8 14 1018.3 - 0.0 - - - - - - -
26/06:30am 20.6 SE 9 13 1017.9 - 0.0 - - - - - - -
26/06:00am 20.6 SE 9 13 1017.6 - 0.0 - - - - - - -
26/05:30am 20.6 SE 8 13 1017.3 - 0.0 - - - - - - -
26/05:00am 20.5 ESE 7 9 1017.2 - 0.0 - - - - - - -
26/04:30am 20.7 SE 8 12 1017.0 - 0.0 - - - - - - -
26/04:00am 20.8 SE 10 14 1016.8 - 0.0 - - - - - - -
26/03:30am 20.6 ESE 8 12 1016.9 - 0.0 - - - - - - -
26/03:00am 20.3 SE 7 11 1017.0 - 0.0 - - - - - - -
26/02:30am 20.2 SE 8 11 1017.3 - 0.0 - - - - - - -
26/02:00am 19.9 SSE 6 8 1017.5 - 0.0 - - - - - - -
26/01:30am 19.8 SE 5 7 1017.6 - 0.0 - - - - - - -
26/01:00am 20.1 ESE 6 8 1017.8 - 0.0 - - - - - - -
26/12:30am 20.2 ENE 7 8 1017.9 - 0.0 - - - - - - -
26/12:00am 20.4 ENE 7 8 1018.0 - 0.0 - - - - - - -
 
Date/Time
EST
Temp
°C
Wind Pressure Rain since
9am
mm
Weather Cloud Vis
km
Sea
Height
m
Swell
Dir  Spd
kts
Gust
kts
hPa Trend Height
m
Period
s
Dir
25/11:30pm 20.4 E 6 7 1018.3 - 0.0 - - - - - - -
25/11:00pm 20.5 E 6 8 1018.5 - 0.0 - - - - - - -
25/10:30pm 20.5 E 5 7 1018.6 - 0.0 - - - - - - -
25/10:00pm 20.5 E 6 7 1018.7 - 0.0 - - - - - - -
25/09:30pm 20.5 ESE 6 8 1018.6 - 0.0 - - - - - - -
25/09:00pm 20.4 ESE 6 8 1018.6 - 0.0 - - - - - - -
25/08:30pm 20.6 E 6 8 1018.7 - 0.0 - - - - - - -
25/08:00pm 20.7 ESE 6 8 1018.4 - 0.0 - - - - - - -
25/07:30pm 20.6 ESE 5 8 1018.1 - 0.0 - - - - - - -
25/07:00pm 20.8 ESE 5 7 1017.9 - 0.0 - - - - - - -
25/06:30pm 20.7 ESE 5 5 1017.8 - 0.0 - - - - - - -
25/06:00pm 20.8 ESE 5 6 1017.6 - 0.0 - - - - - - -
25/05:30pm 21.1 ESE 4 6 1017.4 - 0.0 - - - - - - -
25/05:00pm 22.0 ESE 5 7 1017.2 - 0.0 - - - - - - -
25/04:30pm 22.6 SE 3 4 1017.0 - 0.0 - - - - - - -
25/04:00pm 22.9 SE 2 2 1016.8 - 0.0 - - - - - - -
25/03:30pm 23.6 SSE 2 2 1016.8 - 0.0 - - - - - - -
25/03:00pm 23.8 SSE 2 3 1016.8 - 0.0 - - - - - - -
25/02:30pm 24.0 S 3 4 1016.9 - 0.0 - - - - - - -
25/02:00pm 24.0 SE 1 3 1017.1 - 0.0 - - - - - - -
25/01:30pm 24.0 SE 2 3 1017.2 - 0.0 - - - - - - -
25/01:00pm 23.5 SSW 5 6 1017.6 - 0.0 - - - - - - -
25/12:30pm 22.6 S 7 9 1018.0 - 0.0 - - - - - - -
25/12:00pm 22.6 S 7 9 1018.3 - 0.0 - - - - - - -
25/11:30am 22.4 S 7 10 1018.6 - 0.0 - - - - - - -
25/11:00am 22.1 S 8 11 1018.8 - 0.0 - - - - - - -
25/10:30am 22.1 S 8 12 1019.1 - 0.0 - - - - - - -
25/10:00am 21.9 S 9 11 1019.2 - 0.0 - - - - - - -
25/09:30am 21.5 S 9 12 1019.2 - 0.0 - - - - - - -
25/09:00am 21.1 S 8 11 1019.2 - 0.4 - - - - - - -
25/08:30am 21.3 S 6 11 1018.9 - 0.4 - - - - - - -
25/08:00am 20.6 S 5 7 1018.4 - 0.4 - - - - - - -
25/07:30am 20.1 S 5 7 1018.3 - 0.4 - - - - - - -
25/07:00am 19.8 S 4 6 1017.8 - 0.4 - - - - - - -
25/06:30am 19.7 SSE 5 6 1017.5 - 0.2 - - - - - - -
25/06:00am 19.6 SSE 5 6 1017.2 - 0.2 - - - - - - -
25/05:30am 19.6 SSE 5 6 1017.0 - 0.2 - - - - - - -
25/05:00am 19.7 SSE 5 6 1016.8 - 0.2 - - - - - - -
25/04:30am 19.4 SSE 5 5 1016.6 - 0.2 - - - - - - -
25/04:00am 19.5 SSE 5 6 1016.8 - 0.2 - - - - - - -
25/03:30am 19.6 SSE 6 7 1017.0 - 0.2 - - - - - - -
25/03:00am 19.8 SSE 6 7 1016.9 - 0.2 - - - - - - -
25/02:30am 19.7 SSE 5 5 1017.2 - 0.2 - - - - - - -
25/02:00am 19.9 SE 5 6 1017.3 - 0.2 - - - - - - -

Other Formats:

Comma delimited format used in spreadsheet applications
http://www.bom.gov.au/fwo/IDQ60701/IDQ60701.94372.axf

JavaScript Object Notation format (JSON) in row-major order
http://www.bom.gov.au/fwo/IDQ60701/IDQ60701.94372.json